KBRD/BRD METAR and TAF weather

Enter ICAO airport designator
Station Type Date Time Source
KBRD METAR 2018/10/16 19:53 UTC NOAA

KBRD 161953Z AUTO 30015G24KT 10SM OVC040 07/M02 A3002 RMK AO2 PK WND 33029/1936 SLP176 T00721022


Station Type Date Time Source
KBRD Decoded METAR 2018/10/16 19:53 UTC NOAA

BRAINERD-CROW WING CO AIRPORT , MN, United States (KBRD) 46-24N 94-08W 372M
Oct 16, 2018 - 03:53 PM EDT / 2018.10.16 1953 UTC
Wind: from the WNW (300 degrees) at 17 MPH (15 KT) gusting to 28 MPH (24 KT):0
Visibility: 10 mile(s):0
Sky conditions: overcast
Temperature: 45.0 F (7.2 C)
Dew Point: 28.0 F (-2.2 C)
Relative Humidity: 51%
Pressure (altimeter): 30.02 in. Hg (1016 hPa)
ob: KBRD 161953Z AUTO 30015G24KT 10SM OVC040 07/M02 A3002 RMK AO2 PK WND 33029/1936 SLP176 T00721022
cycle: 20

Station Type Date Time Source
KBRD TAF 2018/10/16 18:36 UTC NOAA

TAF KBRD 161732Z 1618/1718 31015G23KT P6SM SCT035
FM162100 31012G19KT P6SM OVC035
FM170400 30010KT P6SM BKN035
FM171400 31010G17KT P6SM SCT035


Example: see airport list